sensor_id;sensor_type;location;lat;lon;timestamp;temperature;humidity
18147;DHT22;9199;48.832;9.182;2023-03-23T00:01:54;14.20;82.90
18147;DHT22;9199;48.832;9.182;2023-03-23T00:04:21;14.30;82.10
18147;DHT22;9199;48.832;9.182;2023-03-23T00:06:49;14.30;82.50
18147;DHT22;9199;48.832;9.182;2023-03-23T00:09:16;14.40;83.00
18147;DHT22;9199;48.832;9.182;2023-03-23T00:11:43;14.40;81.60
18147;DHT22;9199;48.832;9.182;2023-03-23T00:14:10;14.40;81.00
18147;DHT22;9199;48.832;9.182;2023-03-23T00:16:40;14.50;80.80
18147;DHT22;9199;48.832;9.182;2023-03-23T00:19:09;14.60;81.10
18147;DHT22;9199;48.832;9.182;2023-03-23T00:21:39;14.50;81.00
18147;DHT22;9199;48.832;9.182;2023-03-23T00:24:10;14.50;80.90
18147;DHT22;9199;48.832;9.182;2023-03-23T00:26:38;14.60;80.20
18147;DHT22;9199;48.832;9.182;2023-03-23T00:29:07;14.60;80.20
18147;DHT22;9199;48.832;9.182;2023-03-23T00:31:35;14.50;80.20
18147;DHT22;9199;48.832;9.182;2023-03-23T00:34:03;14.60;80.40
18147;DHT22;9199;48.832;9.182;2023-03-23T00:36:31;14.60;79.90
18147;DHT22;9199;48.832;9.182;2023-03-23T00:38:58;14.60;80.00
18147;DHT22;9199;48.832;9.182;2023-03-23T00:41:28;14.60;80.20
18147;DHT22;9199;48.832;9.182;2023-03-23T00:43:55;14.60;81.10
18147;DHT22;9199;48.832;9.182;2023-03-23T00:46:23;14.50;80.50
18147;DHT22;9199;48.832;9.182;2023-03-23T00:48:50;14.60;80.50
18147;DHT22;9199;48.832;9.182;2023-03-23T00:51:17;14.70;80.60
18147;DHT22;9199;48.832;9.182;2023-03-23T00:53:44;14.70;80.20
18147;DHT22;9199;48.832;9.182;2023-03-23T00:56:12;14.80;80.60
18147;DHT22;9199;48.832;9.182;2023-03-23T00:58:41;14.80;80.10
18147;DHT22;9199;48.832;9.182;2023-03-23T01:01:08;14.80;80.30
18147;DHT22;9199;48.832;9.182;2023-03-23T01:03:35;14.80;80.10
18147;DHT22;9199;48.832;9.182;2023-03-23T01:06:07;14.80;79.80
18147;DHT22;9199;48.832;9.182;2023-03-23T01:08:39;14.90;79.60
18147;DHT22;9199;48.832;9.182;2023-03-23T01:11:12;14.80;79.70
18147;DHT22;9199;48.832;9.182;2023-03-23T01:13:42;14.80;79.50
18147;DHT22;9199;48.832;9.182;2023-03-23T01:16:09;14.80;79.60
18147;DHT22;9199;48.832;9.182;2023-03-23T01:18:35;14.80;79.60
18147;DHT22;9199;48.832;9.182;2023-03-23T01:21:06;14.80;79.40
18147;DHT22;9199;48.832;9.182;2023-03-23T01:23:33;14.80;79.20
18147;DHT22;9199;48.832;9.182;2023-03-23T01:26:03;14.80;79.20
18147;DHT22;9199;48.832;9.182;2023-03-23T01:28:30;14.70;79.20
18147;DHT22;9199;48.832;9.182;2023-03-23T01:31:01;14.70;79.20
18147;DHT22;9199;48.832;9.182;2023-03-23T01:33:28;14.70;79.00
18147;DHT22;9199;48.832;9.182;2023-03-23T01:35:55;14.70;79.30
18147;DHT22;9199;48.832;9.182;2023-03-23T01:38:22;14.70;78.90
18147;DHT22;9199;48.832;9.182;2023-03-23T01:40:48;14.80;79.00
18147;DHT22;9199;48.832;9.182;2023-03-23T01:43:15;14.70;79.00
18147;DHT22;9199;48.832;9.182;2023-03-23T01:45:42;14.70;79.10
18147;DHT22;9199;48.832;9.182;2023-03-23T01:48:15;14.60;79.80
18147;DHT22;9199;48.832;9.182;2023-03-23T01:50:50;14.60;79.20
18147;DHT22;9199;48.832;9.182;2023-03-23T01:53:18;14.60;79.30
18147;DHT22;9199;48.832;9.182;2023-03-23T01:55:49;14.50;79.00
18147;DHT22;9199;48.832;9.182;2023-03-23T01:58:21;14.50;78.90
18147;DHT22;9199;48.832;9.182;2023-03-23T02:00:51;14.40;79.00
18147;DHT22;9199;48.832;9.182;2023-03-23T02:03:20;14.40;79.10
18147;DHT22;9199;48.832;9.182;2023-03-23T02:05:49;14.30;78.60
18147;DHT22;9199;48.832;9.182;2023-03-23T02:08:17;14.40;79.00
18147;DHT22;9199;48.832;9.182;2023-03-23T02:10:44;14.30;79.70
18147;DHT22;9199;48.832;9.182;2023-03-23T02:13:12;14.20;78.90
18147;DHT22;9199;48.832;9.182;2023-03-23T02:15:45;14.20;79.10
18147;DHT22;9199;48.832;9.182;2023-03-23T02:18:29;14.20;79.00
18147;DHT22;9199;48.832;9.182;2023-03-23T02:21:17;14.20;78.80
18147;DHT22;9199;48.832;9.182;2023-03-23T02:23:57;14.20;78.90
18147;DHT22;9199;48.832;9.182;2023-03-23T02:26:36;14.20;78.80
18147;DHT22;9199;48.832;9.182;2023-03-23T02:29:18;14.20;78.70
18147;DHT22;9199;48.832;9.182;2023-03-23T02:32:04;14.30;79.00
18147;DHT22;9199;48.832;9.182;2023-03-23T02:34:40;14.30;79.00
18147;DHT22;9199;48.832;9.182;2023-03-23T02:37:11;14.30;78.80
18147;DHT22;9199;48.832;9.182;2023-03-23T02:39:42;14.30;79.00
18147;DHT22;9199;48.832;9.182;2023-03-23T02:42:12;14.30;79.20
18147;DHT22;9199;48.832;9.182;2023-03-23T02:44:41;14.30;79.50
18147;DHT22;9199;48.832;9.182;2023-03-23T02:47:14;14.30;79.60
18147;DHT22;9199;48.832;9.182;2023-03-23T02:49:44;14.30;80.00
18147;DHT22;9199;48.832;9.182;2023-03-23T02:52:14;14.30;80.10
18147;DHT22;9199;48.832;9.182;2023-03-23T02:54:42;14.20;80.40
18147;DHT22;9199;48.832;9.182;2023-03-23T02:57:09;14.20;80.50
18147;DHT22;9199;48.832;9.182;2023-03-23T02:59:37;14.20;80.90
18147;DHT22;9199;48.832;9.182;2023-03-23T03:02:07;14.10;81.20
18147;DHT22;9199;48.832;9.182;2023-03-23T03:04:35;14.10;81.40
18147;DHT22;9199;48.832;9.182;2023-03-23T03:07:26;14.10;81.60
18147;DHT22;9199;48.832;9.182;2023-03-23T03:09:58;14.10;81.60
18147;DHT22;9199;48.832;9.182;2023-03-23T03:12:32;14.10;81.50
18147;DHT22;9199;48.832;9.182;2023-03-23T03:15:09;14.10;81.50
18147;DHT22;9199;48.832;9.182;2023-03-23T03:17:41;14.20;81.70
18147;DHT22;9199;48.832;9.182;2023-03-23T03:20:10;14.10;81.50
18147;DHT22;9199;48.832;9.182;2023-03-23T03:22:41;14.20;81.40
18147;DHT22;9199;48.832;9.182;2023-03-23T03:25:10;14.20;81.30
18147;DHT22;9199;48.832;9.182;2023-03-23T03:27:39;14.20;81.30
18147;DHT22;9199;48.832;9.182;2023-03-23T03:30:10;14.20;81.50
18147;DHT22;9199;48.832;9.182;2023-03-23T03:32:41;14.20;81.30
18147;DHT22;9199;48.832;9.182;2023-03-23T03:35:09;14.20;81.30
18147;DHT22;9199;48.832;9.182;2023-03-23T03:37:37;14.20;81.40
18147;DHT22;9199;48.832;9.182;2023-03-23T03:40:09;14.20;81.30
18147;DHT22;9199;48.832;9.182;2023-03-23T03:42:38;14.20;81.10
18147;DHT22;9199;48.832;9.182;2023-03-23T03:45:07;14.30;80.90
18147;DHT22;9199;48.832;9.182;2023-03-23T03:47:34;14.30;80.60
18147;DHT22;9199;48.832;9.182;2023-03-23T03:50:01;14.30;80.60
18147;DHT22;9199;48.832;9.182;2023-03-23T03:52:28;14.40;80.50
18147;DHT22;9199;48.832;9.182;2023-03-23T03:54:54;14.30;80.70
18147;DHT22;9199;48.832;9.182;2023-03-23T03:57:23;14.30;80.80
18147;DHT22;9199;48.832;9.182;2023-03-23T03:59:50;14.40;80.70
18147;DHT22;9199;48.832;9.182;2023-03-23T04:02:18;14.40;80.80
18147;DHT22;9199;48.832;9.182;2023-03-23T04:04:49;14.40;80.90
18147;DHT22;9199;48.832;9.182;2023-03-23T04:07:18;14.40;81.20
18147;DHT22;9199;48.832;9.182;2023-03-23T04:09:46;14.40;82.10
18147;DHT22;9199;48.832;9.182;2023-03-23T04:12:13;14.50;81.10
18147;DHT22;9199;48.832;9.182;2023-03-23T04:14:41;14.50;81.00
18147;DHT22;9199;48.832;9.182;2023-03-23T04:17:08;14.50;81.20
18147;DHT22;9199;48.832;9.182;2023-03-23T04:19:35;14.50;81.40
18147;DHT22;9199;48.832;9.182;2023-03-23T04:22:02;14.50;81.30
18147;DHT22;9199;48.832;9.182;2023-03-23T04:24:29;14.50;81.20
18147;DHT22;9199;48.832;9.182;2023-03-23T04:26:57;14.50;81.60
18147;DHT22;9199;48.832;9.182;2023-03-23T04:29:24;14.50;81.70
18147;DHT22;9199;48.832;9.182;2023-03-23T04:31:52;14.50;81.70
18147;DHT22;9199;48.832;9.182;2023-03-23T04:34:21;14.50;81.80
18147;DHT22;9199;48.832;9.182;2023-03-23T04:36:49;14.50;81.40
18147;DHT22;9199;48.832;9.182;2023-03-23T04:39:16;14.50;81.40
18147;DHT22;9199;48.832;9.182;2023-03-23T04:41:43;14.50;81.50
18147;DHT22;9199;48.832;9.182;2023-03-23T04:44:11;14.50;81.80
18147;DHT22;9199;48.832;9.182;2023-03-23T04:46:43;14.50;81.80
18147;DHT22;9199;48.832;9.182;2023-03-23T04:49:16;14.50;82.00
18147;DHT22;9199;48.832;9.182;2023-03-23T04:51:47;14.50;82.10
18147;DHT22;9199;48.832;9.182;2023-03-23T04:54:16;14.50;82.20
18147;DHT22;9199;48.832;9.182;2023-03-23T04:56:42;14.50;82.00
18147;DHT22;9199;48.832;9.182;2023-03-23T04:59:09;14.50;82.10
18147;DHT22;9199;48.832;9.182;2023-03-23T05:01:36;14.60;81.80
18147;DHT22;9199;48.832;9.182;2023-03-23T05:04:04;14.60;82.30
18147;DHT22;9199;48.832;9.182;2023-03-23T05:06:32;14.50;82.90
18147;DHT22;9199;48.832;9.182;2023-03-23T05:08:59;14.50;82.30
18147;DHT22;9199;48.832;9.182;2023-03-23T05:11:26;14.60;81.80
18147;DHT22;9199;48.832;9.182;2023-03-23T05:13:52;14.60;82.00
18147;DHT22;9199;48.832;9.182;2023-03-23T05:16:19;14.60;82.10
18147;DHT22;9199;48.832;9.182;2023-03-23T05:18:46;14.60;81.80
18147;DHT22;9199;48.832;9.182;2023-03-23T05:21:13;14.70;81.10
18147;DHT22;9199;48.832;9.182;2023-03-23T05:23:42;14.80;81.30
18147;DHT22;9199;48.832;9.182;2023-03-23T05:26:09;14.80;80.70
18147;DHT22;9199;48.832;9.182;2023-03-23T05:28:35;15.00;80.40
18147;DHT22;9199;48.832;9.182;2023-03-23T05:31:03;15.00;80.30
18147;DHT22;9199;48.832;9.182;2023-03-23T05:33:30;14.90;80.40
18147;DHT22;9199;48.832;9.182;2023-03-23T05:35:56;14.90;80.30
18147;DHT22;9199;48.832;9.182;2023-03-23T05:38:23;15.00;80.10
18147;DHT22;9199;48.832;9.182;2023-03-23T05:40:51;15.00;80.30
18147;DHT22;9199;48.832;9.182;2023-03-23T05:43:18;15.00;80.20
18147;DHT22;9199;48.832;9.182;2023-03-23T05:45:46;15.00;80.30
18147;DHT22;9199;48.832;9.182;2023-03-23T05:48:13;15.00;80.20
18147;DHT22;9199;48.832;9.182;2023-03-23T05:50:40;15.10;80.00
18147;DHT22;9199;48.832;9.182;2023-03-23T05:53:07;15.20;79.60
18147;DHT22;9199;48.832;9.182;2023-03-23T05:55:33;15.20;79.40
18147;DHT22;9199;48.832;9.182;2023-03-23T05:58:01;15.20;79.50
18147;DHT22;9199;48.832;9.182;2023-03-23T06:00:28;15.20;79.40
18147;DHT22;9199;48.832;9.182;2023-03-23T06:02:56;15.20;79.90
18147;DHT22;9199;48.832;9.182;2023-03-23T06:05:23;15.30;80.30
18147;DHT22;9199;48.832;9.182;2023-03-23T06:07:51;15.40;80.50
18147;DHT22;9199;48.832;9.182;2023-03-23T06:10:18;15.50;80.30
18147;DHT22;9199;48.832;9.182;2023-03-23T06:12:44;15.60;79.80
18147;DHT22;9199;48.832;9.182;2023-03-23T06:15:13;15.60;80.00
18147;DHT22;9199;48.832;9.182;2023-03-23T06:17:39;15.70;78.30
18147;DHT22;9199;48.832;9.182;2023-03-23T06:20:07;15.80;78.20
18147;DHT22;9199;48.832;9.182;2023-03-23T06:22:35;15.80;78.20
18147;DHT22;9199;48.832;9.182;2023-03-23T06:25:03;15.80;78.10
18147;DHT22;9199;48.832;9.182;2023-03-23T06:27:30;15.80;78.60
18147;DHT22;9199;48.832;9.182;2023-03-23T06:29:57;15.80;78.20
18147;DHT22;9199;48.832;9.182;2023-03-23T06:32:26;15.80;78.20
18147;DHT22;9199;48.832;9.182;2023-03-23T06:34:54;15.80;78.00
18147;DHT22;9199;48.832;9.182;2023-03-23T06:37:22;15.80;78.50
18147;DHT22;9199;48.832;9.182;2023-03-23T06:39:49;15.70;78.20
18147;DHT22;9199;48.832;9.182;2023-03-23T06:42:17;15.60;78.60
18147;DHT22;9199;48.832;9.182;2023-03-23T06:44:43;15.50;79.00
18147;DHT22;9199;48.832;9.182;2023-03-23T06:47:10;15.40;79.70
18147;DHT22;9199;48.832;9.182;2023-03-23T06:49:38;15.40;80.10
18147;DHT22;9199;48.832;9.182;2023-03-23T06:52:06;15.40;80.30
18147;DHT22;9199;48.832;9.182;2023-03-23T06:54:32;15.40;80.20
18147;DHT22;9199;48.832;9.182;2023-03-23T06:56:59;15.50;79.40
18147;DHT22;9199;48.832;9.182;2023-03-23T06:59:26;15.70;79.60
18147;DHT22;9199;48.832;9.182;2023-03-23T07:01:53;15.90;78.90
18147;DHT22;9199;48.832;9.182;2023-03-23T07:04:19;16.00;79.20
18147;DHT22;9199;48.832;9.182;2023-03-23T07:06:48;16.10;78.90
18147;DHT22;9199;48.832;9.182;2023-03-23T07:09:14;16.10;78.40
18147;DHT22;9199;48.832;9.182;2023-03-23T07:11:41;16.10;78.20
18147;DHT22;9199;48.832;9.182;2023-03-23T07:14:09;16.00;78.70
18147;DHT22;9199;48.832;9.182;2023-03-23T07:16:36;16.00;78.60
18147;DHT22;9199;48.832;9.182;2023-03-23T07:19:02;16.00;78.60
18147;DHT22;9199;48.832;9.182;2023-03-23T07:21:29;16.00;78.60
18147;DHT22;9199;48.832;9.182;2023-03-23T07:23:58;15.90;78.50
18147;DHT22;9199;48.832;9.182;2023-03-23T07:26:24;15.90;79.20
18147;DHT22;9199;48.832;9.182;2023-03-23T07:28:51;15.90;79.50
18147;DHT22;9199;48.832;9.182;2023-03-23T07:31:18;15.80;79.60
18147;DHT22;9199;48.832;9.182;2023-03-23T07:33:44;15.80;79.70
18147;DHT22;9199;48.832;9.182;2023-03-23T07:36:11;15.80;79.60
18147;DHT22;9199;48.832;9.182;2023-03-23T07:38:38;15.80;79.60
18147;DHT22;9199;48.832;9.182;2023-03-23T07:41:06;15.80;80.00
18147;DHT22;9199;48.832;9.182;2023-03-23T07:43:33;15.80;80.00
18147;DHT22;9199;48.832;9.182;2023-03-23T07:46:00;15.90;80.10
18147;DHT22;9199;48.832;9.182;2023-03-23T07:48:26;15.90;79.70
18147;DHT22;9199;48.832;9.182;2023-03-23T07:50:53;16.10;80.20
18147;DHT22;9199;48.832;9.182;2023-03-23T07:53:20;16.30;79.40
18147;DHT22;9199;48.832;9.182;2023-03-23T07:55:48;16.40;79.40
18147;DHT22;9199;48.832;9.182;2023-03-23T07:58:16;16.70;78.60
18147;DHT22;9199;48.832;9.182;2023-03-23T08:00:45;16.90;78.80
18147;DHT22;9199;48.832;9.182;2023-03-23T08:03:12;17.10;78.40
18147;DHT22;9199;48.832;9.182;2023-03-23T08:05:39;17.30;77.50
18147;DHT22;9199;48.832;9.182;2023-03-23T08:08:08;17.40;77.70
18147;DHT22;9199;48.832;9.182;2023-03-23T08:10:35;17.30;77.90
18147;DHT22;9199;48.832;9.182;2023-03-23T08:13:02;17.10;78.10
18147;DHT22;9199;48.832;9.182;2023-03-23T08:15:30;17.00;78.30
18147;DHT22;9199;48.832;9.182;2023-03-23T08:17:58;17.00;78.90
18147;DHT22;9199;48.832;9.182;2023-03-23T08:20:26;17.00;79.10
18147;DHT22;9199;48.832;9.182;2023-03-23T08:22:55;17.00;80.10
18147;DHT22;9199;48.832;9.182;2023-03-23T08:25:24;17.10;79.50
18147;DHT22;9199;48.832;9.182;2023-03-23T08:27:51;17.10;79.50
18147;DHT22;9199;48.832;9.182;2023-03-23T08:30:19;17.20;79.60
18147;DHT22;9199;48.832;9.182;2023-03-23T08:32:49;17.20;79.80
18147;DHT22;9199;48.832;9.182;2023-03-23T08:35:17;17.00;79.70
18147;DHT22;9199;48.832;9.182;2023-03-23T08:37:44;17.00;80.00
18147;DHT22;9199;48.832;9.182;2023-03-23T08:40:13;16.80;80.60
18147;DHT22;9199;48.832;9.182;2023-03-23T08:42:41;16.80;81.10
18147;DHT22;9199;48.832;9.182;2023-03-23T08:45:10;16.80;81.50
18147;DHT22;9199;48.832;9.182;2023-03-23T08:47:38;16.60;81.70
18147;DHT22;9199;48.832;9.182;2023-03-23T08:50:10;16.60;82.60
18147;DHT22;9199;48.832;9.182;2023-03-23T08:52:38;16.60;82.70
18147;DHT22;9199;48.832;9.182;2023-03-23T08:55:05;16.70;82.90
18147;DHT22;9199;48.832;9.182;2023-03-23T08:57:34;16.80;83.40
18147;DHT22;9199;48.832;9.182;2023-03-23T09:00:02;16.80;83.30
18147;DHT22;9199;48.832;9.182;2023-03-23T09:02:39;16.70;83.50
18147;DHT22;9199;48.832;9.182;2023-03-23T09:05:08;16.60;84.20
18147;DHT22;9199;48.832;9.182;2023-03-23T09:07:36;16.40;85.00
18147;DHT22;9199;48.832;9.182;2023-03-23T09:10:04;16.40;85.50
18147;DHT22;9199;48.832;9.182;2023-03-23T09:12:31;16.40;85.60
18147;DHT22;9199;48.832;9.182;2023-03-23T09:14:58;16.50;85.70
18147;DHT22;9199;48.832;9.182;2023-03-23T09:17:24;16.50;85.50
18147;DHT22;9199;48.832;9.182;2023-03-23T09:19:51;16.60;86.00
18147;DHT22;9199;48.832;9.182;2023-03-23T09:22:20;16.70;86.30
18147;DHT22;9199;48.832;9.182;2023-03-23T09:24:49;16.80;85.90
18147;DHT22;9199;48.832;9.182;2023-03-23T09:27:17;16.80;85.50
18147;DHT22;9199;48.832;9.182;2023-03-23T09:29:44;16.80;85.90
18147;DHT22;9199;48.832;9.182;2023-03-23T09:32:14;16.90;85.60
18147;DHT22;9199;48.832;9.182;2023-03-23T09:34:41;16.90;85.30
18147;DHT22;9199;48.832;9.182;2023-03-23T09:37:08;16.90;85.70
18147;DHT22;9199;48.832;9.182;2023-03-23T09:39:36;16.80;85.20
18147;DHT22;9199;48.832;9.182;2023-03-23T09:42:11;16.90;85.70
18147;DHT22;9199;48.832;9.182;2023-03-23T09:44:50;17.00;85.90
18147;DHT22;9199;48.832;9.182;2023-03-23T09:47:25;17.10;85.80
18147;DHT22;9199;48.832;9.182;2023-03-23T09:49:59;17.20;84.80
18147;DHT22;9199;48.832;9.182;2023-03-23T09:52:35;17.20;84.50
18147;DHT22;9199;48.832;9.182;2023-03-23T09:55:05;17.10;85.30
18147;DHT22;9199;48.832;9.182;2023-03-23T09:57:39;17.10;85.10
18147;DHT22;9199;48.832;9.182;2023-03-23T10:00:12;17.00;85.10
18147;DHT22;9199;48.832;9.182;2023-03-23T10:02:49;17.00;85.10
18147;DHT22;9199;48.832;9.182;2023-03-23T10:05:31;17.00;85.30
18147;DHT22;9199;48.832;9.182;2023-03-23T10:07:59;17.00;85.50
18147;DHT22;9199;48.832;9.182;2023-03-23T10:10:35;17.30;85.20
18147;DHT22;9199;48.832;9.182;2023-03-23T10:13:06;17.50;84.90
18147;DHT22;9199;48.832;9.182;2023-03-23T10:15:38;17.50;83.90
18147;DHT22;9199;48.832;9.182;2023-03-23T10:18:12;17.40;84.60
18147;DHT22;9199;48.832;9.182;2023-03-23T10:20:46;17.50;84.90
18147;DHT22;9199;48.832;9.182;2023-03-23T10:23:24;17.60;84.10
18147;DHT22;9199;48.832;9.182;2023-03-23T10:26:04;17.60;84.40
18147;DHT22;9199;48.832;9.182;2023-03-23T10:28:39;17.60;84.20
18147;DHT22;9199;48.832;9.182;2023-03-23T10:31:11;17.70;83.90
18147;DHT22;9199;48.832;9.182;2023-03-23T10:33:40;17.70;84.10
18147;DHT22;9199;48.832;9.182;2023-03-23T10:36:12;17.80;84.50
18147;DHT22;9199;48.832;9.182;2023-03-23T10:38:45;17.90;83.70
18147;DHT22;9199;48.832;9.182;2023-03-23T10:41:14;17.80;84.00
18147;DHT22;9199;48.832;9.182;2023-03-23T10:43:42;17.80;84.20
18147;DHT22;9199;48.832;9.182;2023-03-23T10:46:19;17.80;84.60
18147;DHT22;9199;48.832;9.182;2023-03-23T10:48:49;17.50;85.40
18147;DHT22;9199;48.832;9.182;2023-03-23T10:51:22;17.30;86.00
18147;DHT22;9199;48.832;9.182;2023-03-23T10:53:51;17.20;86.80
18147;DHT22;9199;48.832;9.182;2023-03-23T10:56:27;17.10;87.00
18147;DHT22;9199;48.832;9.182;2023-03-23T10:58:54;17.20;87.10
18147;DHT22;9199;48.832;9.182;2023-03-23T11:01:30;17.30;87.00
18147;DHT22;9199;48.832;9.182;2023-03-23T11:03:58;17.60;87.30
18147;DHT22;9199;48.832;9.182;2023-03-23T11:06:28;17.80;86.40
18147;DHT22;9199;48.832;9.182;2023-03-23T11:09:01;17.90;85.90
18147;DHT22;9199;48.832;9.182;2023-03-23T11:11:32;17.90;85.60
18147;DHT22;9199;48.832;9.182;2023-03-23T11:14:00;17.80;86.10
18147;DHT22;9199;48.832;9.182;2023-03-23T11:16:31;17.60;86.90
18147;DHT22;9199;48.832;9.182;2023-03-23T11:19:00;17.50;88.00
18147;DHT22;9199;48.832;9.182;2023-03-23T11:21:39;17.50;87.20
18147;DHT22;9199;48.832;9.182;2023-03-23T11:24:08;17.60;87.40
18147;DHT22;9199;48.832;9.182;2023-03-23T11:26:36;17.50;87.50
18147;DHT22;9199;48.832;9.182;2023-03-23T11:29:06;17.60;87.50
18147;DHT22;9199;48.832;9.182;2023-03-23T11:31:41;17.50;87.60
18147;DHT22;9199;48.832;9.182;2023-03-23T11:34:12;17.50;87.60
18147;DHT22;9199;48.832;9.182;2023-03-23T11:36:43;17.50;87.70
18147;DHT22;9199;48.832;9.182;2023-03-23T11:39:21;17.70;87.80
18147;DHT22;9199;48.832;9.182;2023-03-23T11:41:50;18.00;87.30
18147;DHT22;9199;48.832;9.182;2023-03-23T11:44:16;18.30;86.10
18147;DHT22;9199;48.832;9.182;2023-03-23T11:46:58;18.40;85.30
18147;DHT22;9199;48.832;9.182;2023-03-23T11:49:34;18.40;84.50
18147;DHT22;9199;48.832;9.182;2023-03-23T11:52:10;18.40;84.70
18147;DHT22;9199;48.832;9.182;2023-03-23T11:54:42;18.50;84.20
18147;DHT22;9199;48.832;9.182;2023-03-23T11:57:12;18.50;84.70
18147;DHT22;9199;48.832;9.182;2023-03-23T11:59:39;18.60;84.10
18147;DHT22;9199;48.832;9.182;2023-03-23T12:02:25;18.70;82.50
18147;DHT22;9199;48.832;9.182;2023-03-23T12:05:02;18.70;81.50
18147;DHT22;9199;48.832;9.182;2023-03-23T12:07:42;18.70;81.50
18147;DHT22;9199;48.832;9.182;2023-03-23T12:10:23;18.70;80.60
18147;DHT22;9199;48.832;9.182;2023-03-23T12:13:00;18.70;80.40
18147;DHT22;9199;48.832;9.182;2023-03-23T12:15:34;18.50;81.00
18147;DHT22;9199;48.832;9.182;2023-03-23T12:18:09;18.60;79.60
18147;DHT22;9199;48.832;9.182;2023-03-23T12:20:44;18.40;80.30
18147;DHT22;9199;48.832;9.182;2023-03-23T12:23:22;18.50;81.10
18147;DHT22;9199;48.832;9.182;2023-03-23T12:26:07;18.70;79.90
18147;DHT22;9199;48.832;9.182;2023-03-23T12:31:30;18.90;80.50
18147;DHT22;9199;48.832;9.182;2023-03-23T12:34:06;19.10;79.60
18147;DHT22;9199;48.832;9.182;2023-03-23T12:36:47;19.10;78.90
18147;DHT22;9199;48.832;9.182;2023-03-23T12:39:46;19.50;79.00
18147;DHT22;9199;48.832;9.182;2023-03-23T12:42:19;20.00;78.40
18147;DHT22;9199;48.832;9.182;2023-03-23T12:44:52;20.50;76.80
18147;DHT22;9199;48.832;9.182;2023-03-23T12:47:36;20.40;76.80
18147;DHT22;9199;48.832;9.182;2023-03-23T12:50:10;20.40;76.90
18147;DHT22;9199;48.832;9.182;2023-03-23T12:52:46;20.40;76.70
18147;DHT22;9199;48.832;9.182;2023-03-23T12:55:18;20.40;77.20
18147;DHT22;9199;48.832;9.182;2023-03-23T12:57:51;20.00;77.00
18147;DHT22;9199;48.832;9.182;2023-03-23T13:00:24;19.60;78.60
18147;DHT22;9199;48.832;9.182;2023-03-23T13:02:57;19.50;79.20
18147;DHT22;9199;48.832;9.182;2023-03-23T13:05:40;19.30;78.50
18147;DHT22;9199;48.832;9.182;2023-03-23T13:08:14;19.10;81.70
18147;DHT22;9199;48.832;9.182;2023-03-23T13:10:45;19.00;86.70
18147;DHT22;9199;48.832;9.182;2023-03-23T13:13:17;19.00;88.20
18147;DHT22;9199;48.832;9.182;2023-03-23T13:15:53;18.90;85.80
18147;DHT22;9199;48.832;9.182;2023-03-23T13:18:27;19.10;85.30
18147;DHT22;9199;48.832;9.182;2023-03-23T13:21:10;19.20;84.80
18147;DHT22;9199;48.832;9.182;2023-03-23T13:23:42;19.20;87.10
18147;DHT22;9199;48.832;9.182;2023-03-23T13:26:12;19.40;87.10
18147;DHT22;9199;48.832;9.182;2023-03-23T13:28:54;19.50;81.30
18147;DHT22;9199;48.832;9.182;2023-03-23T13:31:25;19.50;80.00
18147;DHT22;9199;48.832;9.182;2023-03-23T13:33:58;19.50;79.30
18147;DHT22;9199;48.832;9.182;2023-03-23T13:36:29;19.70;79.30
18147;DHT22;9199;48.832;9.182;2023-03-23T13:38:57;19.80;78.60
18147;DHT22;9199;48.832;9.182;2023-03-23T13:41:25;19.90;78.40
18147;DHT22;9199;48.832;9.182;2023-03-23T13:43:54;20.00;77.60
18147;DHT22;9199;48.832;9.182;2023-03-23T13:46:32;20.10;77.50
18147;DHT22;9199;48.832;9.182;2023-03-23T13:49:16;19.70;77.10
18147;DHT22;9199;48.832;9.182;2023-03-23T13:52:02;19.50;78.70
18147;DHT22;9199;48.832;9.182;2023-03-23T13:54:41;19.10;78.40
18147;DHT22;9199;48.832;9.182;2023-03-23T13:57:35;19.00;79.20
18147;DHT22;9199;48.832;9.182;2023-03-23T14:00:25;19.00;80.20
18147;DHT22;9199;48.832;9.182;2023-03-23T14:02:59;18.90;80.30
18147;DHT22;9199;48.832;9.182;2023-03-23T14:05:32;18.90;80.30
18147;DHT22;9199;48.832;9.182;2023-03-23T14:08:02;18.90;80.00
18147;DHT22;9199;48.832;9.182;2023-03-23T14:10:34;18.90;79.60
18147;DHT22;9199;48.832;9.182;2023-03-23T14:13:02;18.90;80.50
18147;DHT22;9199;48.832;9.182;2023-03-23T14:15:31;18.90;79.90
18147;DHT22;9199;48.832;9.182;2023-03-23T14:18:05;18.90;80.10
18147;DHT22;9199;48.832;9.182;2023-03-23T14:20:34;18.80;79.60
18147;DHT22;9199;48.832;9.182;2023-03-23T14:23:02;18.80;79.50
18147;DHT22;9199;48.832;9.182;2023-03-23T14:25:30;18.90;80.00
18147;DHT22;9199;48.832;9.182;2023-03-23T14:27:58;19.00;79.70
18147;DHT22;9199;48.832;9.182;2023-03-23T14:30:26;19.10;79.90
18147;DHT22;9199;48.832;9.182;2023-03-23T14:33:01;19.20;78.90
18147;DHT22;9199;48.832;9.182;2023-03-23T14:35:31;19.30;78.00
18147;DHT22;9199;48.832;9.182;2023-03-23T14:37:58;19.40;78.00
18147;DHT22;9199;48.832;9.182;2023-03-23T14:40:26;19.50;77.40
18147;DHT22;9199;48.832;9.182;2023-03-23T14:42:54;19.50;77.00
18147;DHT22;9199;48.832;9.182;2023-03-23T14:45:23;19.40;77.50
18147;DHT22;9199;48.832;9.182;2023-03-23T14:47:52;19.30;77.10
18147;DHT22;9199;48.832;9.182;2023-03-23T14:50:28;19.30;77.30
18147;DHT22;9199;48.832;9.182;2023-03-23T14:52:59;19.20;78.40
18147;DHT22;9199;48.832;9.182;2023-03-23T14:55:26;19.20;77.70
18147;DHT22;9199;48.832;9.182;2023-03-23T14:58:05;19.30;77.10
18147;DHT22;9199;48.832;9.182;2023-03-23T15:00:35;19.20;76.40
18147;DHT22;9199;48.832;9.182;2023-03-23T15:03:05;19.20;75.70
18147;DHT22;9199;48.832;9.182;2023-03-23T15:05:34;19.20;75.70
18147;DHT22;9199;48.832;9.182;2023-03-23T15:08:08;19.00;75.80
18147;DHT22;9199;48.832;9.182;2023-03-23T15:10:37;18.80;75.50
18147;DHT22;9199;48.832;9.182;2023-03-23T15:13:05;18.70;75.00
18147;DHT22;9199;48.832;9.182;2023-03-23T15:15:34;18.70;75.10
18147;DHT22;9199;48.832;9.182;2023-03-23T15:18:02;18.70;75.40
18147;DHT22;9199;48.832;9.182;2023-03-23T15:20:32;18.60;75.00
18147;DHT22;9199;48.832;9.182;2023-03-23T15:23:16;18.60;75.00
18147;DHT22;9199;48.832;9.182;2023-03-23T15:25:48;18.50;75.00
18147;DHT22;9199;48.832;9.182;2023-03-23T15:28:17;18.50;75.10
18147;DHT22;9199;48.832;9.182;2023-03-23T15:30:49;18.50;75.20
18147;DHT22;9199;48.832;9.182;2023-03-23T15:33:16;18.40;75.60
18147;DHT22;9199;48.832;9.182;2023-03-23T15:35:46;18.30;75.60
18147;DHT22;9199;48.832;9.182;2023-03-23T15:38:19;18.30;75.60
18147;DHT22;9199;48.832;9.182;2023-03-23T15:40:50;18.30;75.20
18147;DHT22;9199;48.832;9.182;2023-03-23T15:43:18;18.30;75.30
18147;DHT22;9199;48.832;9.182;2023-03-23T15:45:53;18.30;74.60
18147;DHT22;9199;48.832;9.182;2023-03-23T15:48:21;18.30;74.40
18147;DHT22;9199;48.832;9.182;2023-03-23T15:50:50;18.30;74.70
18147;DHT22;9199;48.832;9.182;2023-03-23T15:53:29;18.20;74.50
18147;DHT22;9199;48.832;9.182;2023-03-23T15:55:58;18.20;75.20
18147;DHT22;9199;48.832;9.182;2023-03-23T15:58:26;18.20;74.00
18147;DHT22;9199;48.832;9.182;2023-03-23T16:00:54;18.30;73.80
18147;DHT22;9199;48.832;9.182;2023-03-23T16:03:23;18.30;73.50
18147;DHT22;9199;48.832;9.182;2023-03-23T16:05:52;18.20;73.50
18147;DHT22;9199;48.832;9.182;2023-03-23T16:08:19;18.20;73.40